PWSweather.com
Personal Weather Stations
Station Observations
MAKAWAOWX1
Up Country Maui, Makawao, HI 96768

Up Country MauiMakawao, HI 96768

Lat: 20.856944, Lon: -156.3149667

Elevation: 1500

Station Type: Davis Vantage Pro

www.dwayneyamato@hawaiiantel.net

High Low Average
Temperature 83.4°F28.6°F 64.8°F18.2°F 73.5°F23.1°F
Dew Point 72.4°F22.4°F 62.1°F16.7°F 66.9°F19.4°F
Winds 10.5 mph ENE16.9 mph ENE Calm Calm 1.1 mph 1.8 mph
Wind Gusts 15.0 mph24.1 mph -- 2.0 mph3.2 mph
Humidity 92% 66% 80%
Pressure 29.91 in1012.90 in 29.83 in1010.20 in -
Precipitation 0.11 in2.80 in - -
Hour Temp Dew Point Humidity Winds Wind Gusts Pressure Precip Precip Rate Daily Precip Total
12:00 AM 68.2°F20.1°C 65.2°F18.4°C 90% Calm Calm -- 29.90 in1012.5 mb - 0.00 in0.0 mm 0.00 in0.0 mm
12:10 AM 68.0°F20.0°C 65.3°F18.5°C 91% Calm Calm -- 29.90 in1012.5 mb - 0.00 in0.0 mm 0.00 in0.0 mm
12:20 AM 67.9°F19.9°C 65.2°F18.4°C 91% Calm Calm -- 29.90 in1012.5 mb - 0.00 in0.0 mm 0.00 in0.0 mm
12:30 AM 67.9°F19.9°C 65.2°F18.4°C 91% Calm Calm -- 29.90 in1012.5 mb - 0.00 in0.0 mm 0.00 in0.0 mm
12:40 AM 67.7°F19.8°C 65.0°F18.3°C 91% Calm Calm -- 29.90 in1012.5 mb - 0.00 in0.0 mm 0.00 in0.0 mm
12:50 AM 67.5°F19.7°C 64.8°F18.2°C 91% Calm Calm -- 29.90 in1012.5 mb - 0.00 in0.0 mm 0.00 in0.0 mm
01:00 AM 67.2°F19.6°C 64.5°F18.1°C 91% Calm Calm -- 29.89 in1012.2 mb - 0.00 in0.0 mm 0.00 in0.0 mm
01:10 AM 67.1°F19.5°C 64.7°F18.2°C 92% Calm Calm -- 29.89 in1012.2 mb - 0.00 in0.0 mm 0.00 in0.0 mm
01:20 AM 67.1°F19.5°C 64.7°F18.2°C 92% Calm Calm -- 29.89 in1012.2 mb - 0.00 in0.0 mm 0.00 in0.0 mm
01:30 AM 67.2°F19.6°C 64.8°F18.2°C 92% Calm Calm -- 29.89 in1012.2 mb - 0.00 in0.0 mm 0.00 in0.0 mm
01:40 AM 67.3°F19.6°C 64.9°F18.3°C 92% Calm Calm -- 29.88 in1011.9 mb - 0.00 in0.0 mm 0.00 in0.0 mm
01:50 AM 67.4°F19.7°C 64.7°F18.2°C 91% Calm Calm -- 29.88 in1011.9 mb - 0.00 in0.0 mm 0.00 in0.0 mm
02:00 AM 67.3°F19.6°C 64.2°F17.9°C 90% Calm Calm -- 29.88 in1011.9 mb - 0.00 in0.0 mm 0.00 in0.0 mm
02:10 AM 66.9°F19.4°C 63.9°F17.7°C 90% Calm Calm -- 29.88 in1011.9 mb - 0.00 in0.0 mm 0.00 in0.0 mm
02:20 AM 66.6°F19.2°C 63.6°F17.6°C 90% Calm Calm -- 29.87 in1011.5 mb - 0.00 in0.0 mm 0.00 in0.0 mm
02:30 AM 66.6°F19.2°C 63.9°F17.7°C 91% Calm Calm -- 29.87 in1011.5 mb - 0.00 in0.0 mm 0.00 in0.0 mm
02:40 AM 66.7°F19.3°C 64.0°F17.8°C 91% Calm Calm -- 29.87 in1011.5 mb - 0.00 in0.0 mm 0.00 in0.0 mm
02:50 AM 66.6°F19.2°C 63.9°F17.7°C 91% Calm Calm -- 29.87 in1011.5 mb - 0.00 in0.0 mm 0.00 in0.0 mm
03:00 AM 66.5°F19.2°C 63.8°F17.7°C 91% Calm Calm -- 29.87 in1011.5 mb - 0.00 in0.0 mm 0.00 in0.0 mm
03:10 AM 66.3°F19.1°C 63.6°F17.6°C 91% Calm Calm -- 29.87 in1011.5 mb - 0.00 in0.0 mm 0.00 in0.0 mm
03:20 AM 66.0°F18.9°C 63.3°F17.4°C 91% Calm Calm -- 29.87 in1011.5 mb - 0.00 in0.0 mm 0.00 in0.0 mm
03:30 AM 66.1°F18.9°C 63.7°F17.6°C 92% Calm Calm -- 29.87 in1011.5 mb - 0.00 in0.0 mm 0.00 in0.0 mm
03:40 AM 66.1°F18.9°C 63.4°F17.4°C 91% Calm Calm -- 29.87 in1011.5 mb - 0.00 in0.0 mm 0.00 in0.0 mm
03:50 AM 66.1°F18.9°C 63.4°F17.4°C 91% Calm Calm -- 29.87 in1011.5 mb - 0.00 in0.0 mm 0.00 in0.0 mm
04:00 AM 66.2°F19.0°C 63.5°F17.5°C 91% Calm Calm -- 29.87 in1011.5 mb - 0.00 in0.0 mm 0.00 in0.0 mm
04:10 AM 66.0°F18.9°C 63.3°F17.4°C 91% Calm Calm -- 29.87 in1011.5 mb - 0.00 in0.0 mm 0.00 in0.0 mm
04:20 AM 65.9°F18.8°C 63.5°F17.5°C 92% Calm Calm -- 29.87 in1011.5 mb - 0.00 in0.0 mm 0.00 in0.0 mm
04:30 AM 66.0°F18.9°C 63.3°F17.4°C 91% Calm Calm -- 29.87 in1011.5 mb - 0.00 in0.0 mm 0.00 in0.0 mm
04:40 AM 65.9°F18.8°C 63.2°F17.3°C 91% Calm Calm -- 29.87 in1011.5 mb - 0.00 in0.0 mm 0.00 in0.0 mm
04:50 AM 65.6°F18.7°C 62.9°F17.2°C 91% Calm Calm -- 29.87 in1011.5 mb - 0.00 in0.0 mm 0.00 in0.0 mm
05:00 AM 65.6°F18.7°C 62.9°F17.2°C 91% Calm Calm -- 29.88 in1011.9 mb - 0.00 in0.0 mm 0.00 in0.0 mm
05:10 AM 65.4°F18.6°C 62.7°F17.1°C 91% Calm Calm -- 29.88 in1011.9 mb - 0.00 in0.0 mm 0.00 in0.0 mm
05:20 AM 65.2°F18.4°C 62.5°F16.9°C 91% Calm Calm -- 29.88 in1011.9 mb - 0.00 in0.0 mm 0.00 in0.0 mm
05:30 AM 65.2°F18.4°C 62.5°F16.9°C 91% Calm Calm -- 29.88 in1011.9 mb - 0.00 in0.0 mm 0.00 in0.0 mm
05:40 AM 64.8°F18.2°C 62.4°F16.9°C 92% Calm Calm -- 29.88 in1011.9 mb - 0.00 in0.0 mm 0.00 in0.0 mm
05:50 AM 64.8°F18.2°C 62.4°F16.9°C 92% Calm Calm -- 29.88 in1011.9 mb - 0.00 in0.0 mm 0.00 in0.0 mm
06:00 AM 64.9°F18.3°C 62.5°F16.9°C 92% Calm Calm -- 29.88 in1011.9 mb - 0.00 in0.0 mm 0.00 in0.0 mm
06:10 AM 64.9°F18.3°C 62.5°F16.9°C 92% Calm Calm -- 29.88 in1011.9 mb - 0.00 in0.0 mm 0.00 in0.0 mm
06:20 AM 64.8°F18.2°C 62.1°F16.7°C 91% Calm Calm -- 29.88 in1011.9 mb - 0.00 in0.0 mm 0.00 in0.0 mm
06:30 AM 64.8°F18.2°C 62.1°F16.7°C 91% Calm Calm -- 29.89 in1012.2 mb - 0.00 in0.0 mm 0.00 in0.0 mm
06:40 AM 64.9°F18.3°C 62.2°F16.8°C 91% Calm Calm -- 29.89 in1012.2 mb - 0.00 in0.0 mm 0.00 in0.0 mm
06:50 AM 65.2°F18.4°C 62.5°F16.9°C 91% Calm Calm -- 29.90 in1012.5 mb - 0.00 in0.0 mm 0.00 in0.0 mm
07:00 AM 66.0°F18.9°C 62.9°F17.2°C 90% Calm Calm -- 29.90 in1012.5 mb - 0.00 in0.0 mm 0.00 in0.0 mm
07:10 AM 66.7°F19.3°C 63.7°F17.6°C 90% Calm Calm -- 29.90 in1012.5 mb - 0.00 in0.0 mm 0.00 in0.0 mm
07:20 AM 67.7°F19.8°C 64.7°F18.2°C 90% Calm Calm -- 29.91 in1012.9 mb - 0.00 in0.0 mm 0.00 in0.0 mm
07:30 AM 69.3°F20.7°C 65.6°F18.7°C 88% Calm Calm -- 29.91 in1012.9 mb - 0.00 in0.0 mm 0.00 in0.0 mm
07:40 AM 70.9°F21.6°C 65.5°F18.6°C 83% Calm Calm -- 29.91 in1012.9 mb - 0.00 in0.0 mm 0.00 in0.0 mm
07:50 AM 71.9°F22.2°C 65.8°F18.8°C 81% Calm Calm -- 29.91 in1012.9 mb - 0.00 in0.0 mm 0.00 in0.0 mm
08:00 AM 72.9°F22.7°C 66.0°F18.9°C 79% Calm Calm -- 29.91 in1012.9 mb - 0.00 in0.0 mm 0.00 in0.0 mm
08:10 AM 74.6°F23.7°C 66.9°F19.4°C 77% Calm Calm -- 29.91 in1012.9 mb - 0.00 in0.0 mm 0.00 in0.0 mm
08:20 AM 76.0°F24.4°C 67.1°F19.5°C 74% 0.1 mph E0.2 kmh E -- 29.91 in1012.9 mb - 0.00 in0.0 mm 0.00 in0.0 mm
08:30 AM 77.3°F25.2°C 66.8°F19.3°C 70% Calm Calm -- 29.91 in1012.9 mb - 0.00 in0.0 mm 0.00 in0.0 mm
08:40 AM 78.4°F25.8°C 67.8°F19.9°C 70% Calm Calm -- 29.91 in1012.9 mb - 0.00 in0.0 mm 0.00 in0.0 mm
08:50 AM 79.7°F26.5°C 68.7°F20.4°C 69% Calm Calm -- 29.91 in1012.9 mb - 0.00 in0.0 mm 0.00 in0.0 mm
09:00 AM 80.7°F27.1°C 68.3°F20.2°C 66% Calm Calm -- 29.91 in1012.9 mb - 0.00 in0.0 mm 0.00 in0.0 mm
09:10 AM 80.9°F27.2°C 68.5°F20.3°C 66% Calm Calm -- 29.91 in1012.9 mb - 0.00 in0.0 mm 0.00 in0.0 mm
09:20 AM 81.0°F27.2°C 68.6°F20.3°C 66% 0.1 mph W0.2 kmh W 1.0 mph1.6 kmh 29.91 in1012.9 mb - 0.00 in0.0 mm 0.00 in0.0 mm
09:30 AM 82.2°F27.9°C 70.6°F21.4°C 68% 1.4 mph W2.3 kmh W 4.0 mph6.4 kmh 29.90 in1012.5 mb - 0.00 in0.0 mm 0.00 in0.0 mm
09:40 AM 82.1°F27.8°C 69.6°F20.9°C 66% Calm Calm 1.0 mph1.6 kmh 29.90 in1012.5 mb - 0.00 in0.0 mm 0.00 in0.0 mm
09:50 AM 82.3°F27.9°C 69.8°F21.0°C 66% Calm Calm -- 29.91 in1012.9 mb - 0.00 in0.0 mm 0.00 in0.0 mm
10:00 AM 82.0°F27.8°C 69.9°F21.1°C 67% 0.2 mph WSW0.3 kmh WSW 4.0 mph6.4 kmh 29.90 in1012.5 mb - 0.00 in0.0 mm 0.00 in0.0 mm
10:10 AM 80.7°F27.1°C 70.0°F21.1°C 70% Calm Calm 3.0 mph4.8 kmh 29.91 in1012.9 mb - 0.00 in0.0 mm 0.00 in0.0 mm
10:20 AM 80.0°F26.7°C 70.2°F21.2°C 72% 1.4 mph WSW2.3 kmh WSW 4.0 mph6.4 kmh 29.91 in1012.9 mb - 0.00 in0.0 mm 0.00 in0.0 mm
10:30 AM 80.1°F26.7°C 70.3°F21.3°C 72% Calm Calm -- 29.90 in1012.5 mb - 0.00 in0.0 mm 0.00 in0.0 mm
10:40 AM 80.0°F26.7°C 70.2°F21.2°C 72% 2.8 mph WSW4.5 kmh WSW 6.0 mph9.7 kmh 29.90 in1012.5 mb - 0.00 in0.0 mm 0.00 in0.0 mm
10:50 AM 80.1°F26.7°C 70.7°F21.5°C 73% 3.6 mph WSW5.8 kmh WSW 5.0 mph8.0 kmh 29.90 in1012.5 mb - 0.00 in0.0 mm 0.00 in0.0 mm
11:00 AM 81.0°F27.2°C 69.8°F21.0°C 69% Calm Calm -- 29.90 in1012.5 mb - 0.00 in0.0 mm 0.00 in0.0 mm
11:10 AM 81.0°F27.2°C 69.4°F20.8°C 68% Calm Calm -- 29.90 in1012.5 mb - 0.00 in0.0 mm 0.00 in0.0 mm
11:20 AM 81.5°F27.5°C 69.9°F21.1°C 68% Calm Calm -- 29.90 in1012.5 mb - 0.00 in0.0 mm 0.00 in0.0 mm
11:30 AM 81.9°F27.7°C 69.9°F21.1°C 67% Calm Calm -- 29.90 in1012.5 mb - 0.00 in0.0 mm 0.00 in0.0 mm
11:40 AM 81.8°F27.7°C 70.2°F21.2°C 68% Calm Calm -- 29.89 in1012.2 mb - 0.00 in0.0 mm 0.00 in0.0 mm
11:50 AM 82.3°F27.9°C 71.1°F21.7°C 69% 2.3 mph NE3.7 kmh NE 7.0 mph11.3 kmh 29.89 in1012.2 mb - 0.00 in0.0 mm 0.00 in0.0 mm
12:00 PM 82.4°F28.0°C 71.2°F21.8°C 69% Calm Calm -- 29.89 in1012.2 mb - 0.00 in0.0 mm 0.00 in0.0 mm
12:10 PM 82.1°F27.8°C 70.1°F21.2°C 67% 3.8 mph ENE6.1 kmh ENE 5.0 mph8.0 kmh 29.89 in1012.2 mb - 0.00 in0.0 mm 0.00 in0.0 mm
12:20 PM 82.1°F27.8°C 70.5°F21.4°C 68% 4.1 mph ENE6.6 kmh ENE 5.0 mph8.0 kmh 29.89 in1012.2 mb - 0.00 in0.0 mm 0.00 in0.0 mm
12:30 PM 81.3°F27.4°C 71.0°F21.7°C 71% 7.0 mph NNE11.3 kmh NNE 14.0 mph22.5 kmh 29.88 in1011.9 mb - 0.00 in0.0 mm 0.00 in0.0 mm
12:40 PM 80.5°F26.9°C 70.2°F21.2°C 71% 4.1 mph SSW6.6 kmh SSW 8.0 mph12.9 kmh 29.88 in1011.9 mb - 0.00 in0.0 mm 0.00 in0.0 mm
12:50 PM 80.8°F27.1°C 70.1°F21.2°C 70% Calm Calm -- 29.88 in1011.9 mb - 0.00 in0.0 mm 0.00 in0.0 mm
01:00 PM 81.4°F27.4°C 70.7°F21.5°C 70% 2.6 mph E4.2 kmh E 3.0 mph4.8 kmh 29.87 in1011.5 mb - 0.00 in0.0 mm 0.00 in0.0 mm
01:10 PM 80.9°F27.2°C 70.7°F21.5°C 71% 5.2 mph E8.4 kmh E 11.0 mph17.7 kmh 29.87 in1011.5 mb - 0.00 in0.0 mm 0.00 in0.0 mm
01:20 PM 80.2°F26.8°C 69.5°F20.8°C 70% 0.3 mph E0.5 kmh E 8.0 mph12.9 kmh 29.88 in1011.9 mb - 0.00 in0.0 mm 0.00 in0.0 mm
01:30 PM 79.2°F26.2°C 70.2°F21.2°C 74% 0.2 mph SW0.3 kmh SW -- 29.87 in1011.5 mb - 0.00 in0.0 mm 0.00 in0.0 mm
01:40 PM 78.9°F26.1°C 72.2°F22.3°C 80% Calm Calm -- 29.87 in1011.5 mb - 0.01 in0.3 mm 0.01 in0.3 mm
01:50 PM 79.3°F26.3°C 72.2°F22.3°C 79% 3.3 mph ESE5.3 kmh ESE 4.0 mph6.4 kmh 29.87 in1011.5 mb - 0.01 in0.3 mm 0.02 in0.5 mm
02:00 PM 78.3°F25.7°C 72.0°F22.2°C 81% Calm Calm -- 29.87 in1011.5 mb - 0.08 in2.0 mm 0.09 in2.3 mm
02:10 PM 77.5°F25.3°C 72.3°F22.4°C 84% Calm Calm -- 29.86 in1011.2 mb - 0.00 in0.0 mm 0.09 in2.3 mm
02:20 PM 77.5°F25.3°C 72.3°F22.4°C 84% Calm Calm -- 29.86 in1011.2 mb - 0.00 in0.0 mm 0.09 in2.3 mm
02:30 PM 77.6°F25.3°C 71.7°F22.1°C 82% Calm Calm 1.0 mph1.6 kmh 29.86 in1011.2 mb - 0.00 in0.0 mm 0.09 in2.3 mm
02:40 PM 77.9°F25.5°C 71.2°F21.8°C 80% 2.8 mph ENE4.5 kmh ENE 4.0 mph6.4 kmh 29.85 in1010.8 mb - 0.00 in0.0 mm 0.09 in2.3 mm
02:50 PM 77.8°F25.4°C 71.1°F21.7°C 80% 4.7 mph E7.6 kmh E 7.0 mph11.3 kmh 29.85 in1010.8 mb - 0.00 in0.0 mm 0.09 in2.3 mm
03:00 PM 77.9°F25.5°C 71.9°F22.2°C 82% Calm Calm -- 29.85 in1010.8 mb - 0.00 in0.0 mm 0.09 in2.3 mm
03:10 PM 78.2°F25.7°C 71.2°F21.8°C 79% 5.1 mph E8.2 kmh E 7.0 mph11.3 kmh 29.85 in1010.8 mb - 0.00 in0.0 mm 0.09 in2.3 mm
03:20 PM 78.8°F26.0°C 71.4°F21.9°C 78% 8.0 mph E12.9 kmh E 12.0 mph19.3 kmh 29.84 in1010.5 mb - 0.00 in0.0 mm 0.09 in2.3 mm
03:30 PM 78.3°F25.7°C 71.3°F21.8°C 79% 5.1 mph SE8.2 kmh SE 9.0 mph14.5 kmh 29.85 in1010.8 mb - 0.00 in0.0 mm 0.09 in2.3 mm
03:40 PM 78.1°F25.6°C 71.4°F21.9°C 80% 2.2 mph SE3.5 kmh SE 3.0 mph4.8 kmh 29.85 in1010.8 mb - 0.00 in0.0 mm 0.09 in2.3 mm
03:50 PM 79.0°F26.1°C 72.3°F22.4°C 80% 0.1 mph SE0.2 kmh SE -- 29.85 in1010.8 mb - 0.01 in0.3 mm 0.10 in2.5 mm
04:00 PM 80.4°F26.9°C 71.8°F22.1°C 75% 0.9 mph SE1.4 kmh SE 2.0 mph3.2 kmh 29.84 in1010.5 mb - 0.00 in0.0 mm 0.10 in2.5 mm
04:10 PM 81.5°F27.5°C 72.4°F22.4°C 74% Calm Calm -- 29.84 in1010.5 mb - 0.00 in0.0 mm 0.10 in2.5 mm
04:20 PM 82.7°F28.2°C 71.5°F21.9°C 69% 5.8 mph ENE9.3 kmh ENE 8.0 mph12.9 kmh 29.84 in1010.5 mb - 0.00 in0.0 mm 0.10 in2.5 mm
04:30 PM 83.4°F28.6°C 72.1°F22.3°C 69% 7.5 mph ENE12.1 kmh ENE 10.0 mph16.1 kmh 29.84 in1010.5 mb - 0.00 in0.0 mm 0.10 in2.5 mm
04:40 PM 83.2°F28.4°C 70.7°F21.5°C 66% 3.9 mph E6.3 kmh E 10.0 mph16.1 kmh 29.83 in1010.2 mb - 0.00 in0.0 mm 0.10 in2.5 mm
04:50 PM 82.7°F28.2°C 70.7°F21.5°C 67% 10.5 mph ENE16.9 kmh ENE 15.0 mph24.1 kmh 29.83 in1010.2 mb - 0.00 in0.0 mm 0.10 in2.5 mm
05:00 PM 82.0°F27.8°C 71.2°F21.8°C 70% 8.6 mph ENE13.8 kmh ENE 13.0 mph20.9 kmh 29.83 in1010.2 mb - 0.00 in0.0 mm 0.10 in2.5 mm
05:10 PM 82.0°F27.8°C 70.8°F21.6°C 69% 9.2 mph SE14.8 kmh SE 13.0 mph20.9 kmh 29.83 in1010.2 mb - 0.00 in0.0 mm 0.10 in2.5 mm
05:20 PM 81.4°F27.4°C 70.7°F21.5°C 70% 4.9 mph E7.9 kmh E 11.0 mph17.7 kmh 29.83 in1010.2 mb - 0.00 in0.0 mm 0.10 in2.5 mm
05:30 PM 80.7°F27.1°C 70.5°F21.4°C 71% 2.8 mph E4.5 kmh E 8.0 mph12.9 kmh 29.84 in1010.5 mb - 0.00 in0.0 mm 0.10 in2.5 mm
05:40 PM 79.5°F26.4°C 69.3°F20.7°C 71% 3.6 mph E5.8 kmh E 6.0 mph9.7 kmh 29.84 in1010.5 mb - 0.00 in0.0 mm 0.10 in2.5 mm
05:50 PM 78.5°F25.8°C 69.1°F20.6°C 73% 4.0 mph E6.4 kmh E 8.0 mph12.9 kmh 29.84 in1010.5 mb - 0.00 in0.0 mm 0.10 in2.5 mm
06:00 PM 77.8°F25.4°C 68.4°F20.2°C 73% 6.4 mph E10.3 kmh E 10.0 mph16.1 kmh 29.84 in1010.5 mb - 0.00 in0.0 mm 0.10 in2.5 mm
06:10 PM 77.1°F25.1°C 68.2°F20.1°C 74% 5.5 mph E8.9 kmh E 9.0 mph14.5 kmh 29.84 in1010.5 mb - 0.00 in0.0 mm 0.10 in2.5 mm
06:20 PM 76.6°F24.8°C 68.1°F20.1°C 75% 2.1 mph E3.4 kmh E 6.0 mph9.7 kmh 29.84 in1010.5 mb - 0.00 in0.0 mm 0.10 in2.5 mm
06:30 PM 76.0°F24.4°C 67.9°F19.9°C 76% 4.2 mph E6.8 kmh E 6.0 mph9.7 kmh 29.84 in1010.5 mb - 0.00 in0.0 mm 0.10 in2.5 mm
06:40 PM 75.6°F24.2°C 67.5°F19.7°C 76% 0.2 mph E0.3 kmh E 4.0 mph6.4 kmh 29.84 in1010.5 mb - 0.00 in0.0 mm 0.10 in2.5 mm
06:50 PM 75.2°F24.0°C 67.5°F19.7°C 77% Calm Calm -- 29.84 in1010.5 mb - 0.00 in0.0 mm 0.10 in2.5 mm
07:00 PM 74.8°F23.8°C 67.1°F19.5°C 77% Calm Calm -- 29.84 in1010.5 mb - 0.00 in0.0 mm 0.10 in2.5 mm
07:10 PM 74.3°F23.5°C 66.6°F19.2°C 77% Calm Calm -- 29.84 in1010.5 mb - 0.00 in0.0 mm 0.10 in2.5 mm
07:20 PM 74.0°F23.3°C 66.3°F19.1°C 77% Calm Calm -- 29.85 in1010.8 mb - 0.00 in0.0 mm 0.10 in2.5 mm
07:30 PM 73.6°F23.1°C 65.6°F18.7°C 76% Calm Calm -- 29.86 in1011.2 mb - 0.00 in0.0 mm 0.10 in2.5 mm
07:40 PM 73.2°F22.9°C 64.8°F18.2°C 75% Calm Calm -- 29.86 in1011.2 mb - 0.00 in0.0 mm 0.10 in2.5 mm
07:50 PM 72.7°F22.6°C 65.5°F18.6°C 78% Calm Calm -- 29.86 in1011.2 mb - 0.00 in0.0 mm 0.10 in2.5 mm
08:00 PM 72.3°F22.4°C 66.1°F18.9°C 81% Calm Calm -- 29.86 in1011.2 mb - 0.00 in0.0 mm 0.10 in2.5 mm
08:10 PM 71.7°F22.1°C 65.9°F18.8°C 82% Calm Calm -- 29.86 in1011.2 mb - 0.00 in0.0 mm 0.10 in2.5 mm
08:20 PM 71.3°F21.8°C 65.5°F18.6°C 82% Calm Calm -- 29.86 in1011.2 mb - 0.00 in0.0 mm 0.10 in2.5 mm
08:30 PM 71.0°F21.7°C 63.4°F17.4°C 77% 0.3 mph E0.5 kmh E 1.0 mph1.6 kmh 29.86 in1011.2 mb - 0.00 in0.0 mm 0.10 in2.5 mm
08:40 PM 71.0°F21.7°C 63.1°F17.3°C 76% Calm Calm -- 29.87 in1011.5 mb - 0.00 in0.0 mm 0.10 in2.5 mm
08:50 PM 71.1°F21.7°C 65.0°F18.3°C 81% Calm Calm -- 29.87 in1011.5 mb - 0.00 in0.0 mm 0.10 in2.5 mm
09:00 PM 71.0°F21.7°C 65.2°F18.4°C 82% Calm Calm -- 29.88 in1011.9 mb - 0.00 in0.0 mm 0.10 in2.5 mm
09:10 PM 70.8°F21.6°C 65.7°F18.7°C 84% Calm Calm -- 29.88 in1011.9 mb - 0.00 in0.0 mm 0.10 in2.5 mm
09:20 PM 70.6°F21.4°C 65.5°F18.6°C 84% Calm Calm -- 29.88 in1011.9 mb - 0.00 in0.0 mm 0.10 in2.5 mm
09:30 PM 70.4°F21.3°C 65.3°F18.5°C 84% Calm Calm -- 29.88 in1011.9 mb - 0.00 in0.0 mm 0.10 in2.5 mm
09:40 PM 70.1°F21.2°C 64.0°F17.8°C 81% Calm Calm -- 29.89 in1012.2 mb - 0.00 in0.0 mm 0.10 in2.5 mm
09:50 PM 69.9°F21.1°C 64.2°F17.9°C 82% 0.9 mph E1.4 kmh E 3.0 mph4.8 kmh 29.89 in1012.2 mb - 0.00 in0.0 mm 0.10 in2.5 mm
10:00 PM 70.1°F21.2°C 63.7°F17.6°C 80% Calm Calm -- 29.89 in1012.2 mb - 0.00 in0.0 mm 0.10 in2.5 mm
10:10 PM 70.3°F21.3°C 64.2°F17.9°C 81% 0.6 mph ESE1.0 kmh ESE 1.0 mph1.6 kmh 29.89 in1012.2 mb - 0.00 in0.0 mm 0.10 in2.5 mm
10:20 PM 70.3°F21.3°C 64.2°F17.9°C 81% Calm Calm -- 29.89 in1012.2 mb - 0.00 in0.0 mm 0.10 in2.5 mm
10:30 PM 70.2°F21.2°C 63.7°F17.6°C 80% Calm Calm -- 29.89 in1012.2 mb - 0.00 in0.0 mm 0.10 in2.5 mm
10:40 PM 69.8°F21.0°C 63.4°F17.4°C 80% Calm Calm -- 29.89 in1012.2 mb - 0.00 in0.0 mm 0.10 in2.5 mm
10:50 PM 69.6°F20.9°C 64.2°F17.9°C 83% 0.2 mph E0.3 kmh E -- 29.90 in1012.5 mb - 0.00 in0.0 mm 0.10 in2.5 mm
11:00 PM 69.5°F20.8°C 63.4°F17.4°C 81% Calm Calm -- 29.90 in1012.5 mb - 0.00 in0.0 mm 0.10 in2.5 mm
11:10 PM 69.4°F20.8°C 63.3°F17.4°C 81% Calm Calm -- 29.90 in1012.5 mb - 0.00 in0.0 mm 0.10 in2.5 mm
11:20 PM 69.2°F20.7°C 63.8°F17.7°C 83% Calm Calm -- 29.89 in1012.2 mb - 0.00 in0.0 mm 0.10 in2.5 mm
11:30 PM 69.0°F20.6°C 63.3°F17.4°C 82% Calm Calm -- 29.89 in1012.2 mb - 0.00 in0.0 mm 0.10 in2.5 mm
11:40 PM 68.7°F20.4°C 62.6°F17.0°C 81% Calm Calm -- 29.89 in1012.2 mb - 0.00 in0.0 mm 0.10 in2.5 mm
11:50 PM 68.9°F20.5°C 63.5°F17.5°C 83% 0.4 mph E0.6 kmh E 7.0 mph11.3 kmh 29.89 in1012.2 mb - 0.00 in0.0 mm 0.10 in2.5 mm